Goianinha, Brazil
Current Conditions -  °F | °C
As of 9:00 PM on Friday 21 Nov 2014 (Local Time) from SBNT Reporting Station
Scattered Clouds Scattered Clouds  
Wind Chill: 79°   Ceiling: Unl
Heat Index: 81°   Visibility: 6mi
Dew Point: 68°   Wind: 12mph
Humidity: 69%   Direction: 130°SE
Pressure: 29.94"   Gusts: NA
Location:  6.26°S, 35.21°W
Report Text: SBNT 220000Z 13010KT 9999 SCT020 SCT100 26/20 Q1014
Loading
Personal Weather Stations






























Interactive Weather Map New forecast layout! Learn more

10-Day Weather Forecast

Advertisements
Track Severe Weather on mobile